Time;durP1;ratioP1;P1;durP2;ratioP2;P2;SDS_P1;SDS_P2;PMS_P1;PMS_P2;Temp;Humidity;BMP_temperature;BMP_pressure;BME280_temperature;BME280_humidity;BME280_pressure;Samples;Min_cycle;Max_cycle;Signal;HPM_P1;HPM_P2
2023/05/07 00:01:02;;;;;;;21.70;12.50;;;;;;;13.03;100.00;101435.91;4852907;29;20080;-76
2023/05/07 00:03:27;;;;;;;20.80;11.38;;;;;;;13.03;100.00;101436.78;4856837;29;20081;-77
2023/05/07 00:05:53;;;;;;;21.88;10.93;;;;;;;13.04;100.00;101438.47;4850560;29;20550;-77
2023/05/07 00:08:18;;;;;;;21.80;11.07;;;;;;;13.08;100.00;101433.72;4858529;29;20138;-77
2023/05/07 00:10:44;;;;;;;20.70;9.98;;;;;;;13.07;100.00;101427.47;4858515;29;20041;-77
2023/05/07 00:13:09;;;;;;;19.48;9.20;;;;;;;13.09;100.00;101422.81;4856790;29;20503;-77
2023/05/07 00:15:35;;;;;;;18.95;8.93;;;;;;;13.11;100.00;101428.94;4847440;29;20189;-77
2023/05/07 00:18:00;;;;;;;21.02;9.70;;;;;;;13.12;100.00;101427.13;4857160;29;20025;-78
2023/05/07 00:20:26;;;;;;;19.85;9.32;;;;;;;13.11;100.00;101423.56;4855461;29;20030;-77
2023/05/07 00:22:51;;;;;;;22.40;9.85;;;;;;;13.10;100.00;101421.84;4852590;29;20044;-77
2023/05/07 00:25:16;;;;;;;21.70;9.52;;;;;;;13.12;100.00;101416.34;4858314;29;20055;-77
2023/05/07 00:27:42;;;;;;;23.42;10.30;;;;;;;13.10;100.00;101420.97;4853785;29;20082;-77
2023/05/07 00:30:08;;;;;;;19.48;9.13;;;;;;;13.09;100.00;101421.97;4850919;29;20100;-77
2023/05/07 00:32:33;;;;;;;20.20;9.05;;;;;;;13.08;100.00;101421.09;4853913;29;20227;-77
2023/05/07 00:34:58;;;;;;;20.95;9.55;;;;;;;13.09;100.00;101430.06;4851191;29;20034;-77
2023/05/07 00:37:24;;;;;;;20.92;9.88;;;;;;;13.07;100.00;101410.41;4855154;29;20038;-77
2023/05/07 00:39:49;;;;;;;18.95;8.75;;;;;;;13.08;100.00;101412.16;4851662;29;20498;-77
2023/05/07 00:42:16;;;;;;;19.20;8.45;;;;;;;13.06;100.00;101414.97;4851832;29;20041;-77
2023/05/07 00:44:41;;;;;;;20.75;9.20;;;;;;;13.06;100.00;101408.69;4853659;29;20084;-77
2023/05/07 00:47:07;;;;;;;21.48;10.50;;;;;;;13.05;100.00;101413.22;4857453;29;20116;-77
2023/05/07 00:49:39;;;;;;;21.80;9.75;;;;;;;13.03;100.00;101401.69;4855460;29;20088;-77
2023/05/07 00:52:07;;;;;;;19.98;9.55;;;;;;;13.04;100.00;101405.25;4853513;29;20153;-77
2023/05/07 00:54:34;;;;;;;21.05;9.70;;;;;;;13.03;100.00;101396.31;4855674;29;20044;-78
2023/05/07 00:57:00;;;;;;;22.40;10.48;;;;;;;13.04;100.00;101405.25;4852719;29;20037;-77
2023/05/07 00:59:25;;;;;;;20.23;9.98;;;;;;;13.05;100.00;101404.28;4855235;29;20448;-77
2023/05/07 01:01:51;;;;;;;21.20;10.10;;;;;;;13.05;100.00;101404.28;4852666;29;20029;-78
2023/05/07 01:04:17;;;;;;;20.65;10.20;;;;;;;13.03;100.00;101408.91;4854500;29;20032;-77
2023/05/07 01:06:44;;;;;;;21.88;10.27;;;;;;;13.06;100.00;101405.97;4855608;29;20022;-77
2023/05/07 01:09:09;;;;;;;20.95;10.75;;;;;;;13.06;100.00;101414.97;4844166;29;20052;-77
2023/05/07 01:11:35;;;;;;;22.67;11.70;;;;;;;13.07;100.00;101407.72;4848983;29;20078;-77
2023/05/07 01:14:00;;;;;;;21.30;10.77;;;;;;;13.07;100.00;101402.31;4856156;29;20034;-77
2023/05/07 01:16:27;;;;;;;20.70;10.50;;;;;;;13.07;100.00;101400.47;4856149;29;20033;-77
2023/05/07 01:18:52;;;;;;;22.40;10.40;;;;;;;13.06;100.00;101398.78;4855908;29;20029;-78
2023/05/07 01:21:18;;;;;;;21.27;10.65;;;;;;;13.07;100.00;101394.22;4852130;29;20081;-77
2023/05/07 01:23:44;;;;;;;21.52;11.50;;;;;;;13.08;100.00;101395.94;4857938;29;20021;-77
2023/05/07 01:26:10;;;;;;;24.73;11.35;;;;;;;13.05;100.00;101391.63;4858225;29;20386;-77
2023/05/07 01:28:35;;;;;;;20.83;10.68;;;;;;;13.05;100.00;101382.69;4857475;29;20134;-77
2023/05/07 01:31:03;;;;;;;21.70;10.55;;;;;;;13.06;100.00;101389.78;4857110;29;20045;-77
2023/05/07 01:33:34;;;;;;;21.65;11.27;;;;;;;13.03;100.00;101377.41;4855216;29;20067;-77
2023/05/07 01:36:02;;;;;;;20.83;10.85;;;;;;;13.03;100.00;101377.41;4853876;29;20040;-77
2023/05/07 01:38:28;;;;;;;23.15;10.73;;;;;;;13.01;100.00;101373.09;4859459;29;20484;-77
2023/05/07 01:40:53;;;;;;;20.48;11.02;;;;;;;12.99;100.00;101380.44;4857983;29;20038;-77
2023/05/07 01:43:19;;;;;;;23.05;11.35;;;;;;;12.97;100.00;101380.56;4857385;29;20120;-77
2023/05/07 01:45:45;;;;;;;22.05;12.45;;;;;;;12.97;100.00;101372.47;4860158;29;20021;-77
2023/05/07 01:48:11;;;;;;;24.83;12.88;;;;;;;12.93;100.00;101371.00;4858320;29;20041;-77
2023/05/07 01:50:37;;;;;;;22.80;13.38;;;;;;;12.94;100.00;101373.56;4856814;29;20151;-77
2023/05/07 01:53:02;;;;;;;27.05;15.43;;;;;;;12.94;100.00;101372.69;4857919;29;20137;-77
2023/05/07 01:55:28;;;;;;;26.20;14.75;;;;;;;12.93;100.00;101376.38;4858284;29;20496;-78
2023/05/07 01:57:53;;;;;;;26.08;15.25;;;;;;;12.91;100.00;101368.41;4858948;29;20101;-77
2023/05/07 02:00:19;;;;;;;24.92;14.65;;;;;;;12.91;100.00;101368.41;4855781;29;20029;-77
2023/05/07 02:02:44;;;;;;;27.20;15.27;;;;;;;12.89;100.00;101366.78;4859736;29;20112;-77
2023/05/07 02:05:10;;;;;;;24.73;15.00;;;;;;;12.88;100.00;101363.22;4854606;29;20121;-77
2023/05/07 02:07:35;;;;;;;25.77;15.85;;;;;;;12.87;100.00;101361.50;4848151;29;20042;-77
2023/05/07 02:10:00;;;;;;;23.45;15.27;;;;;;;12.85;100.00;101363.44;4853614;29;20094;-77
2023/05/07 02:12:26;;;;;;;26.10;17.17;;;;;;;12.85;100.00;101362.59;4857864;29;20097;-77
2023/05/07 02:14:51;;;;;;;26.95;17.27;;;;;;;12.85;100.00;101368.84;4859068;29;20041;-77
2023/05/07 02:17:16;;;;;;;26.70;17.67;;;;;;;12.86;100.00;101370.56;4857647;29;20033;-77
2023/05/07 02:19:41;;;;;;;24.73;15.48;;;;;;;12.87;100.00;101366.03;4856079;29;20085;-77
2023/05/07 02:22:07;;;;;;;28.98;16.95;;;;;;;12.86;100.00;101365.19;4858210;29;20435;-77
2023/05/07 02:24:32;;;;;;;26.00;17.48;;;;;;;12.87;100.00;101369.59;4858204;29;20029;-78
2023/05/07 02:26:58;;;;;;;27.80;17.55;;;;;;;12.86;100.00;101370.56;4854566;29;20486;-77
2023/05/07 02:29:23;;;;;;;29.13;18.25;;;;;;;12.88;100.00;101382.09;4855154;29;20072;-77
2023/05/07 02:31:52;;;;;;;27.02;17.25;;;;;;;12.88;100.00;101381.25;4855447;29;20089;-77
2023/05/07 02:34:18;;;;;;;29.88;19.58;;;;;;;12.89;100.00;101380.28;4854332;29;20109;-78
2023/05/07 02:36:44;;;;;;;26.35;18.08;;;;;;;12.88;100.00;101379.41;4853851;29;20033;-77
2023/05/07 02:39:09;;;;;;;28.20;17.60;;;;;;;12.89;100.00;101373.03;4857555;29;20093;-77
2023/05/07 02:41:34;;;;;;;30.20;18.75;;;;;;;12.89;100.00;101374.88;4853888;29;20033;-78
2023/05/07 02:44:00;;;;;;;29.15;17.77;;;;;;;12.88;100.00;101367.75;4851165;29;20482;-78
2023/05/07 02:46:25;;;;;;;27.45;17.92;;;;;;;12.89;100.00;101375.75;4857793;29;20028;-77
2023/05/07 02:48:50;;;;;;;28.45;19.17;;;;;;;12.89;100.00;101378.44;4857485;29;20045;-77
2023/05/07 02:51:19;;;;;;;27.38;18.35;;;;;;;12.89;100.00;101380.28;4857890;29;20371;-77
2023/05/07 02:53:45;;;;;;;28.23;18.85;;;;;;;12.89;100.00;101383.84;4859120;29;20037;-77
2023/05/07 02:56:11;;;;;;;31.90;18.42;;;;;;;12.90;100.00;101384.72;4857027;29;20025;-77
2023/05/07 02:58:36;;;;;;;28.77;19.23;;;;;;;12.91;100.00;101383.72;4856254;29;20493;-78
2023/05/07 03:01:01;;;;;;;28.90;19.83;;;;;;;12.93;100.00;101381.78;4853469;29;20060;-77
2023/05/07 03:03:27;;;;;;;28.15;19.33;;;;;;;12.94;100.00;101370.88;4852414;29;20039;-78
2023/05/07 03:05:52;;;;;;;29.02;19.10;;;;;;;12.97;100.00;101375.16;4858933;29;20039;-77
2023/05/07 03:08:17;;;;;;;32.72;19.85;;;;;;;12.99;100.00;101375.03;4855949;29;20069;-77
2023/05/07 03:10:43;;;;;;;29.27;19.95;;;;;;;13.01;100.00;101373.09;4856140;29;20032;-77
2023/05/07 03:13:08;;;;;;;27.98;19.13;;;;;;;13.01;100.00;101373.09;4855130;29;20498;-77
2023/05/07 03:15:33;;;;;;;30.65;20.55;;;;;;;13.03;100.00;101374.72;4844363;29;20374;-77
2023/05/07 03:17:58;;;;;;;29.30;19.85;;;;;;;13.03;100.00;101374.72;4857692;29;20068;-77
2023/05/07 03:20:24;;;;;;;28.63;19.50;;;;;;;13.03;100.00;101369.31;4853982;29;20033;-77
2023/05/07 03:22:49;;;;;;;31.45;21.35;;;;;;;13.03;100.00;101366.63;4857493;29;20056;-77
2023/05/07 03:25:15;;;;;;;32.42;20.13;;;;;;;13.05;100.00;101370.06;4854133;29;20216;-78
2023/05/07 03:27:41;;;;;;;31.48;21.85;;;;;;;13.04;100.00;101359.38;4856199;29;20037;-78
2023/05/07 03:30:08;;;;;;;29.73;20.77;;;;;;;13.04;100.00;101362.91;4855513;29;20109;-77
2023/05/07 03:32:34;;;;;;;30.77;22.30;;;;;;;13.04;100.00;101362.91;4858937;29;20033;-77
2023/05/07 03:34:59;;;;;;;32.15;21.05;;;;;;;13.03;100.00;101365.75;4855213;29;20041;-78
2023/05/07 03:37:25;;;;;;;32.13;20.75;;;;;;;13.05;100.00;101361.09;4854744;29;20099;-77
2023/05/07 03:39:50;;;;;;;30.15;19.30;;;;;;;13.04;100.00;101365.63;4854386;29;20036;-77
2023/05/07 03:42:15;;;;;;;30.95;21.65;;;;;;;13.03;100.00;101361.22;4852322;29;20034;-77
2023/05/07 03:44:41;;;;;;;31.50;20.98;;;;;;;13.03;100.00;101352.25;4857723;29;20378;-77
2023/05/07 03:47:06;;;;;;;33.75;23.42;;;;;;;13.02;100.00;101362.19;4853164;29;20031;-77
2023/05/07 03:49:31;;;;;;;30.92;22.52;;;;;;;13.00;100.00;101360.56;4853439;29;20052;-78
2023/05/07 03:51:57;;;;;;;30.48;21.80;;;;;;;13.01;100.00;101362.31;4856709;29;20029;-78
2023/05/07 03:54:22;;;;;;;29.63;21.42;;;;;;;13.01;100.00;101351.53;4851099;29;20030;-77
2023/05/07 03:56:47;;;;;;;30.27;21.77;;;;;;;12.98;100.00;101367.94;4850198;29;20490;-77
2023/05/07 03:59:13;;;;;;;29.13;21.27;;;;;;;12.99;100.00;101372.34;4852251;29;20033;-78
2023/05/07 04:01:39;;;;;;;29.60;21.38;;;;;;;12.96;100.00;101370.75;4848543;29;20033;-78
2023/05/07 04:04:04;;;;;;;32.30;21.70;;;;;;;12.95;100.00;101377.13;4855436;29;20037;-77
2023/05/07 04:06:30;;;;;;;30.13;21.42;;;;;;;12.93;100.00;101373.69;4855843;29;20435;-78
2023/05/07 04:08:56;;;;;;;30.52;22.70;;;;;;;12.91;100.00;101381.91;4849854;29;20471;-78
2023/05/07 04:11:21;;;;;;;29.77;20.30;;;;;;;12.92;100.00;101382.75;4853019;29;20048;-78
2023/05/07 04:13:47;;;;;;;31.02;22.65;;;;;;;12.90;100.00;101384.72;4848916;29;20045;-77
2023/05/07 04:16:12;;;;;;;30.25;21.63;;;;;;;12.90;100.00;101384.72;4855771;29;20535;-77
2023/05/07 04:18:38;;;;;;;30.25;19.90;;;;;;;12.88;100.00;101386.66;4855942;29;20036;-77
2023/05/07 04:21:03;;;;;;;28.80;20.50;;;;;;;12.88;100.00;101382.09;4851163;29;20478;-78
2023/05/07 04:23:29;;;;;;;29.02;19.88;;;;;;;12.87;100.00;101390.31;4858185;29;20461;-77
2023/05/07 04:25:55;;;;;;;29.75;20.98;;;;;;;12.85;100.00;101390.41;4856048;29;20131;-79
2023/05/07 04:28:20;;;;;;;30.42;21.35;;;;;;;12.87;100.00;101388.50;4846205;29;20635;-77
2023/05/07 04:30:45;;;;;;;31.30;20.98;;;;;;;12.87;100.00;101390.31;4850137;29;20036;-77
2023/05/07 04:33:11;;;;;;;30.17;22.55;;;;;;;12.86;100.00;101389.47;4850998;29;20033;-78
2023/05/07 04:35:40;;;;;;;31.40;22.48;;;;;;;12.88;100.00;101386.66;4854352;29;20513;-78
2023/05/07 04:38:05;;;;;;;32.15;23.13;;;;;;;12.90;100.00;101388.25;4855078;29;20205;-77
2023/05/07 04:40:30;;;;;;;35.20;23.95;;;;;;;12.91;100.00;101387.28;4851874;29;20141;-79
2023/05/07 04:42:55;;;;;;;33.50;24.60;;;;;;;12.94;100.00;101388.88;4855971;29;20101;-78
2023/05/07 04:45:24;;;;;;;35.00;24.70;;;;;;;12.94;100.00;101384.38;4847806;29;20064;-77
2023/05/07 04:47:49;;;;;;;34.85;25.35;;;;;;;12.97;100.00;101390.50;4852265;29;20029;-78
2023/05/07 04:50:15;;;;;;;32.28;25.20;;;;;;;12.98;100.00;101389.53;4850371;29;20108;-78
2023/05/07 04:52:40;;;;;;;37.08;24.95;;;;;;;12.97;100.00;101390.50;4852882;29;20491;-78
2023/05/07 04:55:06;;;;;;;35.30;25.10;;;;;;;12.98;100.00;101398.47;4853617;29;20037;-78
2023/05/07 04:57:31;;;;;;;32.50;24.40;;;;;;;13.00;100.00;101401.94;4855142;29;20478;-77
2023/05/07 04:59:57;;;;;;;35.90;24.95;;;;;;;13.02;100.00;101396.41;4856854;29;20494;-78
2023/05/07 05:02:22;;;;;;;35.90;26.38;;;;;;;13.05;100.00;101399.72;4854720;29;20064;-77
2023/05/07 05:04:47;;;;;;;37.78;28.98;;;;;;;13.09;100.00;101403.09;4854447;29;20065;-78
2023/05/07 05:07:13;;;;;;;38.53;28.63;;;;;;;13.11;100.00;101401.97;4854211;29;20147;-77
2023/05/07 05:09:38;;;;;;;36.20;27.08;;;;;;;13.16;100.00;101408.88;4851245;29;20034;-77
2023/05/07 05:12:06;;;;;;;35.33;26.88;;;;;;;13.19;100.00;101404.09;4847266;29;20098;-78
2023/05/07 05:14:35;;;;;;;36.72;28.52;;;;;;;13.25;100.00;101409.03;4855571;29;20319;-78
2023/05/07 05:17:00;;;;;;;42.22;28.67;;;;;;;13.27;100.00;101398.97;4854691;29;20049;-78
2023/05/07 05:19:25;;;;;;;36.97;29.05;;;;;;;13.34;100.00;101401.19;4854453;29;20192;-77
2023/05/07 05:21:51;;;;;;;35.08;28.38;;;;;;;13.38;100.00;101405.41;4845193;29;20140;-77
2023/05/07 05:24:16;;;;;;;38.15;28.83;;;;;;;13.43;100.00;101406.78;4853860;29;20049;-78
2023/05/07 05:26:41;;;;;;;37.20;29.40;;;;;;;13.47;100.00;101412.84;4854250;29;20549;-78
2023/05/07 05:29:07;;;;;;;35.80;28.33;;;;;;;13.51;100.00;101413.44;4853148;29;20025;-78
2023/05/07 05:31:33;;;;;;;38.60;31.33;;;;;;;13.55;100.00;101414.94;4851547;29;20030;-78
2023/05/07 05:33:58;;;;;;;39.47;29.75;;;;;;;13.57;100.00;101412.97;4853868;29;20409;-78
2023/05/07 05:36:24;;;;;;;38.72;29.60;;;;;;;13.60;100.00;101412.72;4847640;29;20069;-78
2023/05/07 05:38:49;;;;;;;37.15;29.65;;;;;;;13.60;100.00;101419.00;4852435;29;20062;-78
2023/05/07 05:41:14;;;;;;;39.00;29.45;;;;;;;13.64;100.00;101423.19;4851073;29;20078;-77
2023/05/07 05:43:40;;;;;;;38.30;30.95;;;;;;;13.68;100.00;101414.88;4856082;29;20029;-78
2023/05/07 05:46:06;;;;;;;38.97;31.70;;;;;;;13.70;100.00;101423.69;4845261;29;20046;-78
2023/05/07 05:48:31;;;;;;;37.88;29.77;;;;;;;13.73;100.00;101421.59;4854547;29;20033;-78
2023/05/07 05:50:59;;;;;;;36.33;30.67;;;;;;;13.78;100.00;101432.06;4849894;29;20408;-78
2023/05/07 05:53:25;;;;;;;37.80;30.30;;;;;;;13.82;100.00;101428.13;4848526;29;20037;-78
2023/05/07 05:55:51;;;;;;;35.80;28.90;;;;;;;13.85;100.00;101422.50;4853484;29;20036;-78
2023/05/07 05:58:16;;;;;;;37.22;29.38;;;;;;;13.90;100.00;101422.16;4851113;29;20040;-78
2023/05/07 06:00:41;;;;;;;34.47;28.50;;;;;;;13.93;100.00;101422.75;4853006;29;20454;-78
2023/05/07 06:03:07;;;;;;;38.08;29.80;;;;;;;13.98;100.00;101428.69;4854052;29;20038;-78
2023/05/07 06:05:32;;;;;;;32.80;27.10;;;;;;;14.02;100.00;101426.59;4857107;29;20021;-78
2023/05/07 06:07:57;;;;;;;35.75;28.50;;;;;;;14.05;100.00;101428.19;4859545;29;20065;-78
2023/05/07 06:10:23;;;;;;;39.28;28.90;;;;;;;14.08;100.00;101425.25;4859849;29;20490;-78
2023/05/07 06:12:49;;;;;;;39.20;30.70;;;;;;;14.11;100.00;101428.53;4851264;29;20100;-78
2023/05/07 06:15:14;;;;;;;34.83;28.05;;;;;;;14.13;100.00;101426.59;4856589;29;20033;-78
2023/05/07 06:17:39;;;;;;;37.67;29.13;;;;;;;14.19;100.00;101424.38;4857069;29;20097;-78
2023/05/07 06:20:05;;;;;;;33.72;26.40;;;;;;;14.22;100.00;101425.00;4856651;29;20121;-78
2023/05/07 06:22:31;;;;;;;36.42;28.35;;;;;;;14.28;100.00;101426.38;4859333;29;20362;-78
2023/05/07 06:24:56;;;;;;;33.47;26.65;;;;;;;14.32;100.00;101426.00;4857360;29;20045;-78
2023/05/07 06:27:21;;;;;;;35.22;25.77;;;;;;;14.34;100.00;101423.16;4857204;29;20026;-78
2023/05/07 06:29:48;;;;;;;34.53;27.05;;;;;;;14.35;100.00;101427.59;4850685;29;20044;-78
2023/05/07 06:32:14;;;;;;;36.00;26.67;;;;;;;14.40;100.00;101425.38;4858305;29;20030;-78
2023/05/07 06:34:40;;;;;;;32.05;26.30;;;;;;;14.43;100.00;101426.97;4855069;29;20036;-78
2023/05/07 06:37:06;;;;;;;36.10;27.20;;;;;;;14.48;100.00;101424.75;4857104;29;20072;-78
2023/05/07 06:39:31;;;;;;;37.97;26.70;;;;;;;14.49;100.00;101431.88;4857703;29;20101;-78
2023/05/07 06:41:57;;;;;;;31.42;26.35;;;;;;;14.57;100.00;101434.84;4858162;29;20042;-77
2023/05/07 06:44:23;;;;;;;36.15;26.08;;;;;;;14.59;100.00;101429.31;4852799;29;20101;-78
2023/05/07 06:46:48;;;;;;;34.92;25.35;;;;;;;14.62;100.00;101432.63;4859750;29;20116;-77
2023/05/07 06:49:13;;;;;;;32.63;25.63;;;;;;;14.67;100.00;101446.66;4858534;29;20031;-77
2023/05/07 06:51:39;;;;;;;34.60;26.13;;;;;;;14.68;100.00;101440.28;4857880;29;20495;-77
2023/05/07 06:54:04;;;;;;;33.75;27.08;;;;;;;14.68;100.00;101453.81;4859943;29;20049;-78
2023/05/07 06:56:30;;;;;;;33.00;25.02;;;;;;;14.67;100.00;101452.06;4855231;29;20122;-78
2023/05/07 06:58:56;;;;;;;32.45;25.00;;;;;;;14.67;100.00;101457.50;4857502;29;20044;-78
2023/05/07 07:01:21;;;;;;;30.55;24.10;;;;;;;14.65;100.00;101455.88;4857437;29;20471;-78
2023/05/07 07:03:46;;;;;;;32.75;24.73;;;;;;;14.67;100.00;101446.66;4858036;29;20350;-78
2023/05/07 07:06:12;;;;;;;30.77;24.00;;;;;;;14.67;100.00;101449.38;4858423;29;20049;-77
2023/05/07 07:08:38;;;;;;;34.08;24.83;;;;;;;14.70;100.00;101445.56;4858250;29;20031;-77
2023/05/07 07:11:07;;;;;;;36.05;23.95;;;;;;;14.73;100.00;101449.84;4853974;29;20029;-78
2023/05/07 07:13:32;;;;;;;31.35;24.73;;;;;;;14.75;100.00;101453.31;4858209;29;20068;-77
2023/05/07 07:15:59;;;;;;;31.38;23.75;;;;;;;14.76;100.00;101447.75;4858479;29;20537;-77
2023/05/07 07:18:24;;;;;;;39.03;22.55;;;;;;;14.78;100.00;101450.34;4857221;29;20128;-77
2023/05/07 07:20:50;;;;;;;34.75;25.17;;;;;;;14.86;100.00;101450.56;4857720;29;20188;-77
2023/05/07 07:23:15;;;;;;;32.90;24.10;;;;;;;14.88;100.00;101458.56;4859197;29;20474;-77
2023/05/07 07:25:40;;;;;;;31.75;23.33;;;;;;;14.89;100.00;101461.16;4858805;29;20101;-77
2023/05/07 07:28:06;;;;;;;32.08;24.08;;;;;;;14.94;100.00;101450.78;4858248;29;20033;-77
2023/05/07 07:30:31;;;;;;;32.40;22.55;;;;;;;15.00;100.00;101458.41;4857095;29;20064;-77
2023/05/07 07:33:02;;;;;;;33.70;23.10;;;;;;;15.07;100.00;101458.78;4854757;29;20059;-78
2023/05/07 07:35:27;;;;;;;30.35;22.23;;;;;;;15.12;100.00;101461.09;4858380;29;20537;-77
2023/05/07 07:37:52;;;;;;;30.88;22.33;;;;;;;15.13;100.00;101468.25;4857632;29;20037;-78
2023/05/07 07:40:18;;;;;;;28.98;22.42;;;;;;;15.18;100.00;101464.16;4857682;29;20078;-77
2023/05/07 07:42:43;;;;;;;31.40;21.98;;;;;;;15.23;100.00;101463.78;4851771;29;20036;-77
2023/05/07 07:45:09;;;;;;;34.22;23.23;;;;;;;15.27;100.00;101470.66;4857407;29;20537;-77
2023/05/07 07:47:34;;;;;;;36.38;21.55;;;;;;;15.33;100.00;101467.44;4855775;29;20088;-77
2023/05/07 07:49:59;;;;;;;30.35;22.90;;;;;;;15.40;100.00;101469.63;4857265;29;20128;-77
2023/05/07 07:52:24;;;;;;;31.45;22.88;;;;;;;15.47;100.00;101466.25;4855667;29;20378;-77
2023/05/07 07:54:50;;;;;;;32.15;23.90;;;;;;;15.51;100.00;101467.72;4854768;29;20025;-77
2023/05/07 07:57:15;;;;;;;34.17;23.20;;;;;;;15.55;100.00;101471.91;4851352;29;20048;-77
2023/05/07 07:59:42;;;;;;;30.00;22.88;;;;;;;15.62;100.00;101465.97;4854598;29;20033;-77
2023/05/07 08:02:08;;;;;;;31.88;22.90;;;;;;;15.66;100.00;101470.97;4854179;29;20086;-77
2023/05/07 08:04:33;;;;;;;28.75;21.00;;;;;;;15.73;100.00;101466.75;4848497;29;20342;-77
2023/05/07 08:06:58;;;;;;;33.05;23.83;;;;;;;15.76;100.00;101471.06;4856183;29;20059;-77
2023/05/07 08:09:24;;;;;;;29.00;21.05;;;;;;;15.79;100.00;101464.56;4854320;29;20029;-77
2023/05/07 08:11:49;;;;;;;29.60;21.67;;;;;;;15.87;100.00;101470.16;4854696;29;20387;-77
2023/05/07 08:14:15;;;;;;;33.78;21.63;;;;;;;15.89;100.00;101473.63;4856616;29;20120;-77
2023/05/07 08:16:41;;;;;;;28.65;21.80;;;;;;;15.93;100.00;101472.38;4855480;29;20185;-77
2023/05/07 08:19:06;;;;;;;29.52;20.65;;;;;;;16.02;100.00;101471.56;4855043;29;20419;-77
2023/05/07 08:21:32;;;;;;;29.48;20.17;;;;;;;16.08;100.00;101471.03;4855145;29;20048;-77
2023/05/07 08:23:57;;;;;;;29.88;22.27;;;;;;;16.17;100.00;101468.50;4856487;29;20101;-77
2023/05/07 08:26:22;;;;;;;30.55;22.88;;;;;;;16.18;100.00;101475.63;4855189;29;20026;-77
2023/05/07 08:28:48;;;;;;;31.83;23.00;;;;;;;16.24;100.00;101480.56;4855213;29;20028;-77
2023/05/07 08:31:13;;;;;;;30.40;22.25;;;;;;;16.28;100.00;101478.41;4853803;29;20450;-77
2023/05/07 08:33:38;;;;;;;29.38;22.00;;;;;;;16.32;100.00;101477.16;4853166;29;20029;-78
2023/05/07 08:36:04;;;;;;;29.92;22.40;;;;;;;16.36;100.00;101475.91;4855440;29;20112;-77
2023/05/07 08:38:30;;;;;;;31.92;23.40;;;;;;;16.41;100.00;101482.66;4856488;29;20040;-77
2023/05/07 08:40:56;;;;;;;31.83;23.42;;;;;;;16.44;100.00;101486.91;4856891;29;20470;-78
2023/05/07 08:43:26;;;;;;;32.45;23.95;;;;;;;16.49;100.00;101481.94;4851310;29;20141;-77
2023/05/07 08:45:53;;;;;;;29.65;22.77;;;;;;;16.56;100.00;101491.28;4861205;29;20053;-77
2023/05/07 08:48:23;;;;;;;29.02;20.52;;;;;;;16.55;100.00;101494.97;4856962;29;20398;-76
2023/05/07 08:50:49;;;;;;;29.95;20.75;;;;;;;16.55;100.00;101488.69;4852475;29;20050;-76
2023/05/07 08:53:16;;;;;;;29.52;20.27;;;;;;;16.58;100.00;101494.69;4848849;29;20378;-76
2023/05/07 08:55:41;;;;;;;32.50;21.98;;;;;;;16.64;100.00;101493.28;4857666;29;20045;-76
2023/05/07 08:58:06;;;;;;;28.85;20.42;;;;;;;16.69;100.00;101485.63;4848393;29;20026;-77
2023/05/07 09:00:32;;;;;;;29.50;21.70;;;;;;;16.81;100.00;101491.81;4857929;29;20041;-76
2023/05/07 09:02:57;;;;;;;29.83;22.73;;;;;;;16.88;100.00;101495.72;4856212;29;20033;-76
2023/05/07 09:05:23;;;;;;;31.02;22.50;;;;;;;16.92;100.00;101488.13;4850448;29;20090;-77
2023/05/07 09:07:50;;;;;;;38.10;24.38;;;;;;;16.94;100.00;101495.16;4852097;29;20125;-77
2023/05/07 09:10:15;;;;;;;33.83;23.60;;;;;;;17.00;100.00;101501.91;4854427;29;20363;-79
2023/05/07 09:12:40;;;;;;;29.98;23.05;;;;;;;17.03;100.00;101498.91;4856877;29;20036;-76
2023/05/07 09:15:07;;;;;;;30.08;21.88;;;;;;;17.06;100.00;101498.63;4853204;29;20040;-76
2023/05/07 09:17:32;;;;;;;31.60;22.98;;;;;;;17.07;100.00;101502.19;4854705;29;20025;-76
2023/05/07 09:20:05;;;;;;;31.55;22.63;;;;;;;17.12;100.00;101498.06;4853539;29;20086;-76
2023/05/07 09:22:36;;;;;;;29.08;22.95;;;;;;;17.13;100.00;101501.66;4853870;29;20936;-76
2023/05/07 09:25:02;;;;;;;28.98;21.83;;;;;;;17.19;100.00;101497.50;4856662;29;20061;-76
2023/05/07 09:27:27;;;;;;;31.95;23.33;;;;;;;17.21;100.00;101496.34;4853729;29;20071;-76
2023/05/07 09:29:53;;;;;;;29.55;22.60;;;;;;;17.24;100.00;101503.38;4852739;29;20037;-76
2023/05/07 09:32:18;;;;;;;30.27;22.75;;;;;;;17.27;100.00;101503.94;4850404;29;20116;-76
2023/05/07 09:34:43;;;;;;;31.05;22.70;;;;;;;17.30;100.00;101502.81;4856410;29;20067;-76
2023/05/07 09:37:12;;;;;;;32.17;23.83;;;;;;;17.33;100.00;101504.41;4854357;29;20034;-76
2023/05/07 09:39:48;;;;;;;32.77;23.80;;;;;;;17.40;100.00;101498.25;4855123;29;20490;-76
2023/05/07 09:42:14;;;;;;;32.33;23.42;;;;;;;17.39;100.00;101499.22;4861209;29;20486;-76
2023/05/07 09:44:41;;;;;;;31.63;23.33;;;;;;;17.40;100.00;101505.53;4856550;29;20085;-76
2023/05/07 09:47:07;;;;;;;29.60;23.45;;;;;;;17.43;100.00;101506.09;4855524;29;20025;-76
2023/05/07 09:49:38;;;;;;;31.58;25.20;;;;;;;17.43;100.00;101506.09;4854520;29;20085;-76
2023/05/07 09:52:08;;;;;;;30.80;24.15;;;;;;;17.47;100.00;101502.13;4852847;29;20037;-76
2023/05/07 09:54:34;;;;;;;31.48;23.98;;;;;;;17.50;100.00;101503.69;4855784;29;20037;-76
2023/05/07 09:57:02;;;;;;;30.38;22.67;;;;;;;17.49;100.00;101510.13;4858294;29;20033;-76
2023/05/07 09:59:29;;;;;;;31.23;22.45;;;;;;;17.51;100.00;101515.41;4853149;29;20059;-76
2023/05/07 10:01:58;;;;;;;30.80;23.15;;;;;;;17.55;100.00;101511.41;4858334;29;20041;-76
2023/05/07 10:04:24;;;;;;;30.98;24.17;;;;;;;17.58;100.00;101505.69;4859609;29;20069;-77
2023/05/07 10:06:50;;;;;;;29.63;23.00;;;;;;;17.67;100.00;101512.97;4861032;29;20108;-76
2023/05/07 10:09:16;;;;;;;32.20;24.48;;;;;;;17.69;100.00;101504.69;4859590;29;20120;-76
2023/05/07 10:11:41;;;;;;;29.48;23.23;;;;;;;17.71;100.00;101508.97;4859360;29;20037;-76
2023/05/07 10:14:07;;;;;;;32.35;23.35;;;;;;;17.76;100.00;101514.88;4860463;29;20041;-76
2023/05/07 10:16:36;;;;;;;31.17;23.92;;;;;;;17.81;100.00;101509.00;4849295;29;20066;-77
2023/05/07 10:19:05;;;;;;;32.63;24.55;;;;;;;17.80;100.00;101507.25;4857889;29;20069;-77
2023/05/07 10:21:33;;;;;;;;;;;;;;;17.86;100.00;101511.28;4857518;29;20045;-77
2023/05/07 10:24:14;;;;;;;32.00;23.98;;;;;;;17.84;100.00;101502.41;4845150;29;20616;-78
2023/05/07 10:26:45;;;;;;;29.33;22.92;;;;;;;17.92;100.00;101508.88;4857510;29;20078;-77
2023/05/07 10:29:35;;;;;;;29.45;23.85;;;;;;;18.02;100.00;101510.72;4859423;29;20029;-77
2023/05/07 10:32:26;;;;;;;29.98;22.30;;;;;;;18.09;100.00;101500.97;4859262;29;20025;-77
2023/05/07 10:34:55;;;;;;;29.15;21.15;;;;;;;18.15;100.00;101512.13;4853113;29;20044;-77
2023/05/07 10:37:20;;;;;;;31.90;21.45;;;;;;;18.24;100.00;101510.38;4859281;29;20041;-77
2023/05/07 10:39:46;;;;;;;29.52;21.45;;;;;;;18.27;100.00;101511.97;4861206;29;20043;-77
2023/05/07 10:42:13;;;;;;;27.25;20.08;;;;;;;18.33;100.00;101514.09;4861076;29;20044;-77
2023/05/07 10:44:38;;;;;;;29.05;20.13;;;;;;;18.32;97.81;101515.97;4859204;29;20086;-77
2023/05/07 10:47:09;;;;;;;27.83;20.08;;;;;;;18.35;100.00;101506.66;4859650;29;20461;-77
2023/05/07 10:49:55;;;;;;;30.45;20.55;;;;;;;18.42;100.00;101502.34;4860589;29;20140;-77
2023/05/07 10:52:24;;;;;;;29.98;21.27;;;;;;;18.50;100.00;101504.31;4855846;29;20045;-77
2023/05/07 10:55:15;;;;;;;28.75;20.63;;;;;;;18.61;100.00;101511.41;4859399;29;20041;-77
2023/05/07 10:57:40;;;;;;;30.25;20.83;;;;;;;18.65;100.00;101512.84;4859084;29;20046;-77